Time;durP1;ratioP1;P1;durP2;ratioP2;P2;SDS_P1;SDS_P2;PMS_P1;PMS_P2;Temp;Humidity;BMP_temperature;BMP_pressure;BME280_temperature;BME280_humidity;BME280_pressure;Samples;Min_cycle;Max_cycle;Signal;HPM_P1;HPM_P2
2021/12/23 00:02:10;;;;;;;36.05;18.67;;;;;;;2.58;67.72;101737.31;4939067;28;20055;-61
2021/12/23 00:04:35;;;;;;;38.03;18.20;;;;;;;2.55;68.17;101725.16;4930366;28;20035;-58
2021/12/23 00:07:01;;;;;;;34.15;18.20;;;;;;;2.56;68.83;101731.22;4936110;28;20164;-59
2021/12/23 00:09:42;;;;;;;35.90;17.40;;;;;;;2.56;68.75;101744.09;4937094;28;20877;-56
2021/12/23 00:12:08;;;;;;;33.70;17.05;;;;;;;2.57;67.86;101733.84;4938239;28;20046;-60
2021/12/23 00:14:34;;;;;;;35.05;17.65;;;;;;;2.54;68.38;101727.66;4933815;28;20066;-58
2021/12/23 00:18:05;;;;;;;35.20;17.50;;;;;;;2.53;67.89;101725.88;4938559;28;20454;-60
2021/12/23 00:25:18;;;;;;;31.80;16.77;;;;;;;2.58;66.75;101703.84;4938664;28;20116;-58
2021/12/23 00:27:43;;;;;;;34.97;17.20;;;;;;;2.62;67.00;101699.00;4931487;28;20318;-56
2021/12/23 00:30:09;;;;;;;33.22;17.48;;;;;;;2.61;66.30;101683.44;4954386;28;20038;-59
2021/12/23 00:32:34;;;;;;;37.47;18.23;;;;;;;2.64;66.55;101668.16;4933090;28;20521;-59
2021/12/23 00:34:59;;;;;;;34.53;18.05;;;;;;;2.58;66.12;101666.13;4936722;28;20112;-58
2021/12/23 00:37:25;;;;;;;40.35;18.55;;;;;;;2.67;66.14;101678.66;4937162;28;20054;-57
2021/12/23 00:39:52;;;;;;;39.90;17.88;;;;;;;2.70;65.39;101681.38;4931587;28;20035;-59
2021/12/23 00:42:17;;;;;;;35.83;18.58;;;;;;;2.70;65.54;101666.84;4930834;28;20958;-59
2021/12/23 00:44:47;;;;;;;39.78;19.05;;;;;;;2.72;65.93;101657.53;4935827;28;20047;-58
2021/12/23 00:47:14;;;;;;;39.08;19.80;;;;;;;2.73;66.19;101648.13;4951675;28;21241;-57
2021/12/23 00:49:39;;;;;;;36.88;19.08;;;;;;;2.80;66.03;101647.66;4923749;28;20570;-58
2021/12/23 00:52:08;;;;;;;38.58;19.52;;;;;;;2.82;65.13;101641.78;4936900;28;20109;-57
2021/12/23 00:54:33;;;;;;;41.10;20.13;;;;;;;2.88;65.32;101636.09;4938012;28;20061;-59
2021/12/23 00:56:58;;;;;;;40.83;20.38;;;;;;;2.76;65.58;101619.94;4932674;28;20046;-58
2021/12/23 00:59:24;;;;;;;43.50;20.85;;;;;;;2.71;65.60;101617.13;4937580;28;20047;-58
2021/12/23 01:01:49;;;;;;;39.65;20.20;;;;;;;2.74;65.45;101629.28;4932389;28;20057;-59
2021/12/23 01:04:14;;;;;;;42.75;20.73;;;;;;;2.66;65.39;101635.69;4940207;28;20053;-59
2021/12/23 01:06:40;;;;;;;43.70;21.55;;;;;;;2.58;65.97;101639.50;4935062;28;20177;-57
2021/12/23 01:09:05;;;;;;;43.72;21.50;;;;;;;2.53;65.73;101631.53;4941532;28;20415;-59
2021/12/23 01:11:31;;;;;;;43.60;21.17;;;;;;;2.47;65.84;101631.16;4938077;28;20043;-57
2021/12/23 01:14:02;;;;;;;44.97;21.40;;;;;;;2.50;66.27;101630.47;4930183;28;20047;-58
2021/12/23 01:16:49;;;;;;;41.60;20.77;;;;;;;2.39;66.31;101627.25;4939610;28;20071;-58
2021/12/23 01:19:16;;;;;;;44.70;20.77;;;;;;;2.34;66.59;101629.56;4941526;28;20047;-57
2021/12/23 01:21:42;;;;;;;51.15;21.92;;;;;;;2.24;66.82;101627.28;4915453;28;20497;-57
2021/12/23 01:24:09;;;;;;;45.17;21.65;;;;;;;2.19;66.93;101617.50;4941244;28;20039;-59
2021/12/23 01:26:36;;;;;;;44.60;21.92;;;;;;;2.15;67.02;101613.84;4934271;28;20046;-59
2021/12/23 01:29:02;;;;;;;46.97;23.02;;;;;;;2.06;67.85;101617.59;4955467;28;20047;-59
2021/12/23 01:31:31;;;;;;;47.80;22.58;;;;;;;1.99;67.70;101613.75;4939658;28;20066;-57
2021/12/23 01:33:56;;;;;;;49.33;22.77;;;;;;;2.01;67.70;101619.88;4930280;28;20043;-58
2021/12/23 01:36:23;;;;;;;50.63;22.67;;;;;;;1.98;68.50;101615.44;4941450;28;20049;-58
2021/12/23 01:38:49;;;;;;;44.83;21.40;;;;;;;1.96;68.43;101611.00;4936284;28;20055;-57
2021/12/23 01:41:14;;;;;;;43.03;21.77;;;;;;;1.88;68.08;101605.41;4937942;28;20105;-57
2021/12/23 01:43:40;;;;;;;43.00;21.95;;;;;;;1.82;68.26;101610.19;4919417;28;20069;-59
2021/12/23 01:46:05;;;;;;;42.80;21.00;;;;;;;1.77;68.70;101609.00;4940052;28;20050;-57
2021/12/23 01:48:31;;;;;;;49.33;23.98;;;;;;;1.66;68.93;101604.91;4937879;28;20037;-58
2021/12/23 01:50:57;;;;;;;49.47;22.80;;;;;;;1.64;68.62;101606.50;4939427;28;20465;-59
2021/12/23 01:53:22;;;;;;;48.47;24.23;;;;;;;1.63;69.27;101607.31;4932600;28;20125;-59
2021/12/23 01:55:47;;;;;;;46.53;22.98;;;;;;;1.54;69.54;101592.19;4925499;28;20046;-58
2021/12/23 01:58:14;;;;;;;47.70;23.35;;;;;;;1.51;68.93;101578.28;4935215;28;20141;-58
2021/12/23 02:00:45;;;;;;;50.88;23.30;;;;;;;1.44;70.16;101564.19;4939843;28;20125;-57
2021/12/23 02:03:11;;;;;;;50.33;24.38;;;;;;;1.52;70.27;101554.38;4952733;28;20046;-57
2021/12/23 02:05:36;;;;;;;54.00;26.17;;;;;;;1.47;70.61;101543.81;4934510;28;20399;-57
2021/12/23 02:08:02;;;;;;;54.78;26.58;;;;;;;1.52;70.49;101544.09;4949128;28;20413;-58
2021/12/23 02:10:28;;;;;;;58.65;26.75;;;;;;;1.59;70.56;101541.97;4957589;28;20045;-58
2021/12/23 02:12:54;;;;;;;56.80;27.15;;;;;;;1.65;70.63;101531.16;4930142;28;20046;-57
2021/12/23 02:15:20;;;;;;;60.47;27.48;;;;;;;1.74;70.64;101526.56;4940095;28;20479;-58
2021/12/23 02:17:47;;;;;;;61.80;27.83;;;;;;;1.88;69.77;101533.44;4929897;28;20069;-58
2021/12/23 02:20:15;;;;;;;67.15;29.75;;;;;;;1.91;70.06;101535.28;4945011;28;20035;-58
2021/12/23 02:22:42;;;;;;;66.25;29.33;;;;;;;1.98;69.58;101529.69;4937662;28;20059;-58
2021/12/23 02:25:08;;;;;;;67.13;29.27;;;;;;;2.01;69.72;101523.03;4938020;28;20118;-59
2021/12/23 02:27:34;;;;;;;69.72;30.50;;;;;;;2.04;70.16;101525.78;4928708;28;20057;-59
2021/12/23 02:29:59;;;;;;;73.03;30.88;;;;;;;2.06;69.93;101523.31;4947857;28;20914;-59
2021/12/23 02:32:25;;;;;;;67.45;30.15;;;;;;;2.12;70.17;101521.09;4937220;28;20118;-58
2021/12/23 02:34:50;;;;;;;78.47;31.83;;;;;;;2.17;69.43;101522.25;4937463;28;20477;-59
2021/12/23 02:37:15;;;;;;;70.90;32.10;;;;;;;2.19;69.80;101522.34;4928106;28;20526;-59
2021/12/23 02:39:41;;;;;;;71.65;32.53;;;;;;;2.28;69.76;101525.41;4928706;28;20422;-58
2021/12/23 02:42:07;;;;;;;69.63;33.03;;;;;;;2.32;69.76;101517.06;4933376;28;20068;-58
2021/12/23 02:44:32;;;;;;;71.25;31.20;;;;;;;2.34;69.86;101520.63;4938413;28;20837;-58
2021/12/23 02:46:57;;;;;;;69.45;31.27;;;;;;;2.37;69.22;101513.97;4938594;28;20494;-58
2021/12/23 02:49:23;;;;;;;71.10;31.27;;;;;;;2.36;69.89;101504.47;4956614;28;20177;-58
2021/12/23 02:51:48;;;;;;;75.20;33.20;;;;;;;2.32;69.32;101497.38;4931060;28;20193;-59
2021/12/23 02:54:14;;;;;;;77.57;33.90;;;;;;;2.30;69.50;101501.56;4934291;28;20414;-57
2021/12/23 02:56:39;;;;;;;76.45;33.13;;;;;;;2.33;69.08;101491.41;4925227;28;20494;-58
2021/12/23 02:59:04;;;;;;;80.00;34.17;;;;;;;2.33;69.29;101501.72;4952321;28;20479;-59
2021/12/23 03:01:30;;;;;;;77.43;33.17;;;;;;;2.38;69.50;101496.81;4928941;28;20047;-59
2021/12/23 03:03:56;;;;;;;82.88;34.60;;;;;;;2.24;69.33;101497.75;4936157;28;20050;-59
2021/12/23 03:06:22;;;;;;;86.60;35.53;;;;;;;2.33;69.57;101495.69;4937445;28;20049;-58
2021/12/23 03:09:02;;;;;;;82.03;34.33;;;;;;;2.29;69.47;101483.47;4952660;28;20058;-59
2021/12/23 03:11:29;;;;;;;82.95;33.97;;;;;;;2.29;70.04;101484.34;4941028;28;20085;-58
2021/12/23 03:13:55;;;;;;;80.57;33.33;;;;;;;2.28;69.79;101480.00;4925858;28;20431;-59
2021/12/23 03:16:26;;;;;;;83.90;32.88;;;;;;;2.26;69.55;101467.84;4934429;28;20054;-58
2021/12/23 03:18:59;;;;;;;78.35;32.80;;;;;;;2.33;69.90;101447.69;4935231;28;20055;-58
2021/12/23 03:21:25;;;;;;;72.95;31.55;;;;;;;2.10;70.23;101424.06;4942390;28;20511;-58
2021/12/23 03:23:51;;;;;;;75.03;31.08;;;;;;;2.14;70.67;101439.75;4935212;28;20226;-58
2021/12/23 03:26:17;;;;;;;77.00;32.22;;;;;;;2.30;70.16;101438.94;4941337;28;20054;-60
2021/12/23 03:28:42;;;;;;;75.13;31.38;;;;;;;2.37;69.82;101441.94;4933583;28;20097;-59
2021/12/23 03:31:08;;;;;;;73.97;30.75;;;;;;;2.38;69.84;101432.50;4940935;28;20502;-59
2021/12/23 03:33:34;;;;;;;76.20;31.60;;;;;;;2.37;69.38;101429.06;4929409;28;20613;-58
2021/12/23 03:35:59;;;;;;;76.38;31.98;;;;;;;2.42;69.57;101426.72;4934970;28;20113;-60
2021/12/23 03:38:25;;;;;;;68.07;30.98;;;;;;;2.42;68.89;101448.22;4937340;28;20041;-59
2021/12/23 03:40:50;;;;;;;76.40;32.17;;;;;;;2.36;69.40;101465.88;4939182;28;20049;-60
2021/12/23 03:43:17;;;;;;;75.78;30.85;;;;;;;2.35;69.66;101464.09;4939211;28;20055;-60
2021/12/23 03:45:44;;;;;;;76.43;31.52;;;;;;;2.40;69.54;101452.38;4925244;28;20119;-58
2021/12/23 03:48:11;;;;;;;72.85;30.17;;;;;;;2.40;69.51;101441.19;4936555;28;20735;-58
2021/12/23 03:50:36;;;;;;;72.00;30.48;;;;;;;2.42;69.91;101453.34;4935365;28;20538;-58
2021/12/23 03:53:02;;;;;;;79.70;30.75;;;;;;;2.45;69.79;101456.06;4937103;28;20620;-59
2021/12/23 03:55:29;;;;;;;77.97;31.73;;;;;;;2.45;69.58;101461.22;4933806;28;20101;-58
2021/12/23 03:57:54;;;;;;;72.25;30.67;;;;;;;2.46;69.62;101454.41;4934661;28;20121;-59
2021/12/23 04:00:22;;;;;;;76.95;31.17;;;;;;;2.40;69.87;101451.47;4931380;28;20133;-58
2021/12/23 04:02:55;;;;;;;75.82;29.80;;;;;;;2.48;69.29;101463.09;4936939;28;20055;-57
2021/12/23 04:05:20;;;;;;;74.85;29.33;;;;;;;2.37;70.31;101465.09;4939858;28;20102;-59
2021/12/23 04:07:46;;;;;;;78.00;29.52;;;;;;;2.44;69.58;101459.44;4922609;28;20522;-59
2021/12/23 04:10:20;;;;;;;75.70;30.38;;;;;;;2.47;69.98;101457.84;4953398;28;20047;-58
2021/12/23 04:12:46;;;;;;;76.32;30.02;;;;;;;2.43;69.83;101454.25;4940151;28;20106;-58
2021/12/23 04:15:12;;;;;;;78.65;30.02;;;;;;;2.42;69.91;101463.66;4938826;28;20125;-60
2021/12/23 04:17:38;;;;;;;76.72;29.67;;;;;;;2.41;69.79;101448.13;4921627;28;20490;-58
2021/12/23 04:20:21;;;;;;;81.00;30.52;;;;;;;2.37;70.38;101438.47;4928831;28;20039;-58
2021/12/23 04:22:54;;;;;;;79.63;29.60;;;;;;;2.37;70.63;101435.91;4939227;28;20036;-58
2021/12/23 04:25:22;;;;;;;76.68;31.08;;;;;;;2.40;70.09;101439.50;4937925;28;20733;-59
2021/12/23 04:27:50;;;;;;;80.18;30.55;;;;;;;2.40;70.10;101443.75;4930970;28;20356;-58
2021/12/23 04:30:16;;;;;;;79.25;29.85;;;;;;;2.42;70.23;101444.75;4932840;28;20150;-57
2021/12/23 04:32:42;;;;;;;78.85;30.38;;;;;;;2.39;70.09;101454.84;4933897;28;20043;-58
2021/12/23 04:35:08;;;;;;;78.35;30.98;;;;;;;2.44;70.04;101437.97;4939340;28;20130;-58
2021/12/23 04:37:34;;;;;;;80.57;30.40;;;;;;;2.41;70.04;101418.13;4926647;28;20491;-61
2021/12/23 04:40:00;;;;;;;84.03;29.80;;;;;;;2.42;70.50;101426.72;4925774;28;20117;-59
2021/12/23 04:42:25;;;;;;;81.40;30.55;;;;;;;2.40;71.03;101423.19;4933307;28;20050;-59
2021/12/23 04:44:50;;;;;;;77.63;28.90;;;;;;;2.37;70.36;101407.59;4939151;28;20518;-58
2021/12/23 04:47:16;;;;;;;79.35;29.92;;;;;;;2.34;70.72;101412.56;4935537;28;20208;-57
2021/12/23 04:49:41;;;;;;;88.72;30.73;;;;;;;2.25;71.39;101407.81;4932243;28;20067;-59
2021/12/23 04:52:06;;;;;;;78.78;30.30;;;;;;;2.26;71.23;101411.25;4942968;28;20054;-60
2021/12/23 04:54:32;;;;;;;81.70;29.23;;;;;;;2.20;70.41;101411.78;4939373;28;20873;-58
2021/12/23 04:57:00;;;;;;;80.07;29.80;;;;;;;2.16;71.28;101408.97;4934703;28;20129;-57
2021/12/23 04:59:27;;;;;;;79.32;29.90;;;;;;;2.07;71.38;101393.94;4940561;28;20050;-58
2021/12/23 05:01:52;;;;;;;81.97;29.58;;;;;;;2.08;71.50;101393.09;4931055;28;20045;-59
2021/12/23 05:04:18;;;;;;;78.55;29.23;;;;;;;2.08;71.31;101393.09;4940245;28;20197;-58
2021/12/23 05:06:43;;;;;;;91.65;30.42;;;;;;;2.07;71.80;101387.91;4944808;28;20039;-59
2021/12/23 05:09:09;;;;;;;83.10;30.95;;;;;;;2.14;72.12;101390.88;4941818;28;20042;-59
2021/12/23 05:11:34;;;;;;;81.35;29.10;;;;;;;2.22;72.11;101391.31;4933553;28;20298;-59
2021/12/23 05:14:03;;;;;;;83.88;29.80;;;;;;;2.29;72.24;101386.59;4925274;28;20136;-60
2021/12/23 05:16:28;;;;;;;82.70;30.17;;;;;;;2.41;71.38;101369.25;4936372;28;20081;-59
2021/12/23 05:18:53;;;;;;;81.13;29.17;;;;;;;2.49;71.50;101361.94;4935242;28;20522;-59
2021/12/23 05:21:19;;;;;;;79.07;29.77;;;;;;;2.59;71.28;101360.72;4941781;28;20669;-59
2021/12/23 05:23:44;;;;;;;80.45;29.25;;;;;;;2.57;71.79;101355.47;4928707;28;20217;-59
2021/12/23 05:26:09;;;;;;;81.32;29.60;;;;;;;2.62;71.09;101343.75;4943298;28;20051;-59
2021/12/23 05:28:35;;;;;;;78.45;29.38;;;;;;;2.64;71.28;101348.97;4941413;28;20387;-59
2021/12/23 05:31:01;;;;;;;74.10;28.80;;;;;;;2.68;70.61;101353.50;4936510;28;20537;-59
2021/12/23 05:33:26;;;;;;;77.95;28.38;;;;;;;2.72;70.64;101343.44;4931062;28;20019;-58
2021/12/23 05:35:52;;;;;;;81.85;29.75;;;;;;;2.75;70.11;101337.53;4931372;28;20149;-59
2021/12/23 05:38:17;;;;;;;77.15;28.83;;;;;;;2.73;70.60;101336.59;4934144;28;20117;-58
2021/12/23 05:40:42;;;;;;;75.95;28.90;;;;;;;2.74;69.79;101328.97;4941696;28;20180;-59
2021/12/23 05:43:08;;;;;;;77.03;28.90;;;;;;;2.73;70.40;101322.03;4939953;28;20047;-59
2021/12/23 05:45:33;;;;;;;72.82;28.48;;;;;;;2.78;70.20;101315.44;4916294;28;20137;-61
2021/12/23 05:47:59;;;;;;;70.30;28.30;;;;;;;2.80;70.37;101334.44;4934888;28;20066;-58
2021/12/23 05:50:24;;;;;;;70.70;26.23;;;;;;;2.81;69.98;101338.75;4939283;28;20046;-58
2021/12/23 05:52:50;;;;;;;75.70;27.98;;;;;;;2.86;69.90;101341.56;4942070;28;20108;-59
2021/12/23 05:55:16;;;;;;;75.53;27.90;;;;;;;2.76;70.20;101335.06;4935595;28;21106;-59
2021/12/23 05:57:42;;;;;;;71.80;27.15;;;;;;;2.81;70.90;101332.69;4932262;28;20068;-60
2021/12/23 06:00:20;;;;;;;71.32;27.20;;;;;;;2.85;70.25;101330.38;4941660;28;20051;-58
2021/12/23 06:02:46;;;;;;;65.97;27.33;;;;;;;2.89;69.85;101325.38;4931422;28;20138;-58
2021/12/23 06:05:12;;;;;;;68.80;26.65;;;;;;;2.92;69.82;101320.41;4940733;28;20054;-60
2021/12/23 06:07:37;;;;;;;77.45;27.05;;;;;;;2.93;70.40;101314.44;4930177;28;20043;-60
2021/12/23 06:10:03;;;;;;;68.68;26.33;;;;;;;2.94;70.99;101316.19;4939486;28;20182;-59
2021/12/23 06:12:29;;;;;;;70.95;26.58;;;;;;;2.97;70.61;101312.09;4929115;28;20053;-59
2021/12/23 06:14:54;;;;;;;71.10;27.23;;;;;;;2.99;70.80;101304.47;4937631;28;20922;-59
2021/12/23 06:17:19;;;;;;;67.68;25.67;;;;;;;2.98;69.88;101321.59;4938488;28;20838;-59
2021/12/23 06:19:45;;;;;;;72.00;27.30;;;;;;;3.02;70.56;101336.38;4927766;28;20031;-58
2021/12/23 06:22:12;;;;;;;71.88;27.15;;;;;;;3.04;69.78;101321.03;4933529;28;20049;-59
2021/12/23 06:24:39;;;;;;;70.93;26.77;;;;;;;3.04;70.23;101318.44;4926047;28;20026;-59
2021/12/23 06:27:04;;;;;;;71.32;26.52;;;;;;;3.05;70.29;101323.66;4936955;28;20039;-59
2021/12/23 06:29:29;;;;;;;68.38;26.70;;;;;;;3.10;70.41;101314.50;4940979;28;20046;-57
2021/12/23 06:31:55;;;;;;;70.05;26.83;;;;;;;3.09;70.43;101322.13;4933502;28;20050;-58
2021/12/23 06:34:20;;;;;;;65.07;25.80;;;;;;;3.10;70.52;101311.91;4933432;28;20046;-59
2021/12/23 06:36:45;;;;;;;71.70;26.73;;;;;;;3.11;70.14;101297.34;4941411;28;20535;-59
2021/12/23 06:39:11;;;;;;;65.97;25.95;;;;;;;3.15;69.89;101297.56;4937939;28;20045;-58
2021/12/23 06:41:36;;;;;;;68.25;26.08;;;;;;;3.18;70.51;101289.97;4932790;28;20336;-59
2021/12/23 06:44:06;;;;;;;74.85;26.02;;;;;;;3.17;69.82;101282.19;4938153;28;20047;-58
2021/12/23 06:46:31;;;;;;;68.53;26.13;;;;;;;3.09;70.17;101268.94;4935509;28;20054;-58
2021/12/23 06:48:56;;;;;;;72.38;26.73;;;;;;;3.14;70.19;101256.25;4941739;28;20050;-60
2021/12/23 06:51:22;;;;;;;68.50;26.85;;;;;;;3.10;70.62;101252.66;4936426;28;20447;-59
2021/12/23 06:53:47;;;;;;;71.40;25.38;;;;;;;3.14;70.36;101271.72;4924195;28;20558;-59
2021/12/23 06:56:17;;;;;;;66.65;25.73;;;;;;;3.22;70.10;101278.16;4932126;28;20106;-59
2021/12/23 06:58:42;;;;;;;72.68;26.20;;;;;;;3.25;69.90;101280.84;4951683;28;20085;-59
2021/12/23 07:01:07;;;;;;;68.95;25.52;;;;;;;3.22;69.98;101270.41;4937110;28;20050;-59
2021/12/23 07:03:55;;;;;;;68.53;25.92;;;;;;;3.27;69.98;101279.25;4928192;28;20035;-57
2021/12/23 07:06:22;;;;;;;68.55;25.95;;;;;;;3.22;70.54;101280.72;4940148;28;20683;-59
2021/12/23 07:08:48;;;;;;;64.85;25.63;;;;;;;3.25;70.37;101283.44;4938221;28;20042;-57
2021/12/23 07:11:14;;;;;;;69.72;26.23;;;;;;;3.31;71.09;101288.00;4935216;28;20525;-58
2021/12/23 07:13:39;;;;;;;64.68;25.20;;;;;;;3.30;70.31;101291.38;4931955;28;20051;-58
2021/12/23 07:16:04;;;;;;;66.80;25.50;;;;;;;3.36;69.60;101287.41;4936710;28;20073;-59
2021/12/23 07:18:30;;;;;;;68.22;25.52;;;;;;;3.35;70.17;101292.50;4935016;28;20043;-58
2021/12/23 07:20:55;;;;;;;67.65;25.33;;;;;;;3.37;70.11;101296.91;4936851;28;20043;-59
2021/12/23 07:23:21;;;;;;;62.50;25.65;;;;;;;3.38;70.24;101300.38;4945330;28;20161;-58
2021/12/23 07:25:46;;;;;;;63.75;25.20;;;;;;;3.38;69.87;101308.09;4943506;28;20067;-59
2021/12/23 07:28:11;;;;;;;67.40;25.48;;;;;;;3.41;70.33;101300.53;4935703;28;20260;-59
2021/12/23 07:30:37;;;;;;;68.53;25.45;;;;;;;3.38;70.58;101293.53;4940126;28;20077;-60
2021/12/23 07:33:02;;;;;;;66.53;25.77;;;;;;;3.35;70.51;101285.66;4929294;28;20163;-59
2021/12/23 07:35:28;;;;;;;62.28;24.85;;;;;;;3.35;70.58;101271.91;4938214;28;20043;-58
2021/12/23 07:37:53;;;;;;;63.65;24.33;;;;;;;3.33;70.42;101258.94;4927983;28;20114;-58
2021/12/23 07:40:19;;;;;;;64.43;25.70;;;;;;;3.30;71.06;101257.88;4936260;28;20213;-59
2021/12/23 07:43:09;;;;;;;65.18;24.77;;;;;;;3.35;70.95;101243.56;4937015;28;20133;-60
2021/12/23 07:45:36;;;;;;;72.63;25.88;;;;;;;3.31;70.89;101234.78;4946394;28;20437;-60
2021/12/23 07:48:02;;;;;;;61.20;24.35;;;;;;;3.31;70.63;101242.50;4930581;28;20698;-61
2021/12/23 07:50:27;;;;;;;65.90;24.77;;;;;;;3.40;69.91;101249.81;4933629;28;20495;-61
2021/12/23 07:52:53;;;;;;;66.55;24.98;;;;;;;3.43;70.27;101253.41;4933315;28;20049;-58
2021/12/23 07:55:20;;;;;;;60.08;24.83;;;;;;;3.45;70.34;101256.94;4939117;28;20055;-60
2021/12/23 07:57:45;;;;;;;65.95;24.52;;;;;;;3.45;70.66;101256.94;4931371;28;20110;-60
2021/12/23 08:00:11;;;;;;;67.10;24.48;;;;;;;3.47;70.28;101260.50;4933955;28;20436;-58
2021/12/23 08:02:37;;;;;;;66.53;24.33;;;;;;;3.52;70.39;101250.38;4922235;28;20081;-60
2021/12/23 08:05:02;;;;;;;62.38;24.33;;;;;;;3.52;69.83;101245.22;4924798;28;20549;-63
2021/12/23 08:07:28;;;;;;;64.65;24.17;;;;;;;3.45;70.26;101238.00;4933714;28;20138;-61
2021/12/23 08:09:54;;;;;;;66.50;24.45;;;;;;;3.40;70.12;101242.06;4930500;28;20548;-58
2021/12/23 08:12:19;;;;;;;66.15;25.42;;;;;;;3.46;70.28;101235.53;4928714;28;20043;-58
2021/12/23 08:14:44;;;;;;;62.13;24.15;;;;;;;3.41;70.17;101223.22;4938418;28;20051;-59
2021/12/23 08:17:10;;;;;;;63.25;24.20;;;;;;;3.46;70.30;101226.91;4924532;28;20069;-59
2021/12/23 08:19:35;;;;;;;64.70;24.20;;;;;;;3.51;70.44;101225.41;4930922;28;20122;-59
2021/12/23 08:22:00;;;;;;;66.05;24.27;;;;;;;3.58;70.42;101201.69;4926781;28;20369;-59
2021/12/23 08:24:26;;;;;;;69.65;24.60;;;;;;;3.61;70.09;101202.72;4933518;28;20043;-59
2021/12/23 08:26:53;;;;;;;63.60;24.33;;;;;;;3.61;69.78;101207.88;4939758;28;20047;-58
2021/12/23 08:29:20;;;;;;;65.78;24.90;;;;;;;3.63;70.26;101198.53;4935483;28;20256;-60
2021/12/23 08:31:53;;;;;;;63.40;24.65;;;;;;;3.58;69.48;101187.13;4943599;28;20027;-59
2021/12/23 08:34:20;;;;;;;69.00;24.67;;;;;;;3.64;69.80;101187.41;4937376;28;20059;-60
2021/12/23 08:36:46;;;;;;;63.47;24.25;;;;;;;3.60;70.54;101176.84;4935301;28;20911;-60
2021/12/23 08:39:11;;;;;;;61.20;23.95;;;;;;;3.71;69.34;101172.22;4936076;28;20039;-60
2021/12/23 08:41:38;;;;;;;61.13;25.10;;;;;;;3.65;69.79;101171.13;4929234;28;20062;-59
2021/12/23 08:44:04;;;;;;;67.15;25.30;;;;;;;3.70;69.34;101166.16;4934285;28;20063;-60
2021/12/23 08:46:29;;;;;;;64.70;24.75;;;;;;;3.79;69.53;101160.53;4933711;28;20496;-60
2021/12/23 08:48:54;;;;;;;65.00;25.27;;;;;;;3.86;69.64;101139.34;4925567;28;20560;-61
2021/12/23 08:51:20;;;;;;;64.70;24.10;;;;;;;3.82;69.50;101142.63;4932172;28;20062;-59
2021/12/23 08:53:45;;;;;;;62.80;24.80;;;;;;;3.93;68.66;101146.56;4929717;28;20049;-59
2021/12/23 08:56:10;;;;;;;66.20;25.00;;;;;;;3.97;68.81;101151.91;4935701;28;20841;-59
2021/12/23 08:58:36;;;;;;;60.67;23.73;;;;;;;4.04;69.04;101158.22;4924106;28;20400;-60
2021/12/23 09:01:03;;;;;;;59.25;23.70;;;;;;;3.99;68.72;101146.81;4934714;28;21113;-59
2021/12/23 09:03:32;;;;;;;60.03;23.75;;;;;;;3.99;69.19;101147.72;4921931;28;20089;-59
2021/12/23 09:05:58;;;;;;;65.30;24.13;;;;;;;4.02;69.05;101137.53;4932492;28;20058;-60
2021/12/23 09:08:25;;;;;;;64.50;24.95;;;;;;;4.07;69.24;101135.16;4928712;28;20117;-60
2021/12/23 09:10:51;;;;;;;57.65;24.55;;;;;;;4.17;68.55;101131.25;4923105;28;20503;-59
2021/12/23 09:13:16;;;;;;;58.47;23.17;;;;;;;4.12;69.06;101125.91;4931374;28;20059;-59
2021/12/23 09:15:42;;;;;;;62.10;24.23;;;;;;;4.16;68.75;101124.31;4922557;28;20165;-58
2021/12/23 09:18:07;;;;;;;64.53;24.38;;;;;;;4.29;68.12;101113.72;4932500;28;21098;-59
2021/12/23 09:20:32;;;;;;;61.83;24.92;;;;;;;4.18;68.26;101117.53;4924768;28;20053;-59
2021/12/23 09:22:58;;;;;;;60.53;24.10;;;;;;;4.27;68.98;101113.66;4920531;28;20423;-59
2021/12/23 09:25:25;;;;;;;60.83;23.35;;;;;;;4.43;68.34;101115.19;4932610;28;20051;-59
2021/12/23 09:33:05;;;;;;;61.33;24.45;;;;;;;4.48;67.44;101101.66;4939691;28;20042;-59
2021/12/23 09:35:32;;;;;;;63.60;24.50;;;;;;;4.46;67.43;101095.53;4935751;28;20071;-59
2021/12/23 09:37:58;;;;;;;63.88;24.67;;;;;;;4.40;68.12;101095.28;4933505;28;20153;-59
2021/12/23 09:40:24;;;;;;;59.35;24.55;;;;;;;4.41;68.08;101089.31;4934334;28;20474;-58
2021/12/23 09:42:52;;;;;;;61.55;24.15;;;;;;;4.51;68.20;101092.28;4930211;28;20039;-59
2021/12/23 09:45:18;;;;;;;60.85;23.85;;;;;;;4.60;67.55;101090.06;4934869;28;20058;-58
2021/12/23 09:47:46;;;;;;;59.35;23.52;;;;;;;4.59;67.39;101088.28;4930857;28;20061;-58
2021/12/23 09:50:14;;;;;;;60.40;23.77;;;;;;;4.60;68.05;101087.47;4938301;28;20277;-59
2021/12/23 09:52:45;;;;;;;60.80;23.42;;;;;;;4.55;67.27;101082.13;4924254;28;20106;-60
2021/12/23 09:55:16;;;;;;;60.65;23.38;;;;;;;4.67;67.43;101077.47;4936593;28;20109;-59
2021/12/23 09:57:44;;;;;;;58.22;23.77;;;;;;;4.66;67.01;101080.84;4922945;28;20153;-61
2021/12/23 10:00:11;;;;;;;58.30;24.02;;;;;;;4.75;66.72;101081.25;4932498;28;20043;-60
2021/12/23 10:02:40;;;;;;;58.95;23.70;;;;;;;4.75;67.05;101075.19;4947377;28;20042;-59
2021/12/23 10:05:09;;;;;;;58.97;22.88;;;;;;;4.72;67.36;101073.34;4931693;28;20295;-59
2021/12/23 10:07:34;;;;;;;61.13;23.90;;;;;;;4.80;66.69;101074.56;4932786;28;20051;-60
2021/12/23 10:10:08;;;;;;;59.85;23.67;;;;;;;4.85;67.46;101074.72;4933723;28;20050;-60
2021/12/23 10:13:09;;;;;;;61.97;23.50;;;;;;;4.94;67.02;101064.72;4938617;28;20054;-60
2021/12/23 10:32:13;;;;;;;57.53;22.50;;;;;;;5.10;66.83;101079.16;4927915;28;20078;-60
2021/12/23 10:37:19;;;;;;;58.83;24.10;;;;;;;5.07;66.41;101063.50;4929589;28;20157;-59
2021/12/23 10:40:03;;;;;;;53.88;23.15;;;;;;;5.26;65.85;101058.22;4930161;28;20691;-58
2021/12/23 10:42:29;;;;;;;57.83;22.83;;;;;;;5.28;65.99;101060.06;4932727;28;20046;-59
2021/12/23 10:45:00;;;;;;;53.90;22.25;;;;;;;5.39;66.25;101060.44;4929817;28;20617;-59
2021/12/23 10:47:38;;;;;;;53.00;22.65;;;;;;;5.44;65.72;101058.00;4934948;28;20151;-60
2021/12/23 10:50:13;;;;;;;51.85;22.25;;;;;;;5.46;65.04;101053.78;4933507;28;20759;-59
2021/12/23 10:52:56;;;;;;;59.35;22.75;;;;;;;5.54;65.09;101052.38;4932909;28;20057;-60
2021/12/23 11:00:49;;;;;;;56.27;23.20;;;;;;;5.65;65.40;101051.94;4937850;28;20093;-60
2021/12/23 11:03:32;;;;;;;52.78;22.88;;;;;;;5.69;65.33;101039.97;4940940;28;20058;-60
2021/12/23 11:06:19;;;;;;;52.60;23.80;;;;;;;5.50;65.88;101045.31;4948308;28;20043;-59
2021/12/23 11:09:00;;;;;;;54.33;23.00;;;;;;;5.63;65.73;101032.00;4933871;28;20503;-62
2021/12/23 11:12:07;;;;;;;55.45;23.08;;;;;;;5.68;65.41;101020.09;4929351;28;20051;-58
2021/12/23 11:36:32;;;;;;;48.93;22.77;;;;;;;6.31;64.07;100961.03;4925749;28;20109;-60
2021/12/23 11:39:12;;;;;;;53.72;22.67;;;;;;;6.23;64.03;100945.25;4934024;28;20087;-59
2021/12/23 11:41:47;;;;;;;51.78;23.30;;;;;;;6.24;64.63;100928.88;4931512;28;20047;-60
2021/12/23 11:44:12;;;;;;;;;;;;;;;6.28;64.60;100914.34;4935928;28;20047;-60
2021/12/23 11:46:56;;;;;;;49.83;21.50;;;;;;;6.33;64.07;100910.19;4931276;28;19993;-60
2021/12/23 11:49:22;;;;;;;55.75;23.75;;;;;;;6.29;63.83;100905.72;4926989;28;20032;-61
2021/12/23 11:54:31;;;;;;;52.20;23.70;;;;;;;6.32;64.35;100892.88;4935523;28;20154;-59
2021/12/23 11:57:03;;;;;;;53.42;23.25;;;;;;;6.44;64.13;100890.66;4937738;28;20046;-60
2021/12/23 11:59:32;;;;;;;53.15;23.75;;;;;;;6.40;63.90;100887.09;4944301;28;20436;-59
2021/12/23 12:01:58;;;;;;;54.63;23.60;;;;;;;6.49;63.73;100884.78;4920483;28;20038;-59
2021/12/23 12:04:31;;;;;;;52.03;23.48;;;;;;;6.50;63.70;100890.84;4930243;28;20038;-59
2021/12/23 12:06:57;;;;;;;50.38;22.65;;;;;;;6.53;63.74;100883.16;4932128;28;20201;-60
2021/12/23 12:09:33;;;;;;;51.35;22.85;;;;;;;6.55;63.47;100880.63;4930147;28;21004;-59
2021/12/23 12:11:58;;;;;;;54.58;23.42;;;;;;;6.57;63.47;100878.97;4934585;28;20054;-59
2021/12/23 12:14:51;;;;;;;50.25;23.50;;;;;;;6.63;63.93;100879.13;4937142;28;20434;-60
2021/12/23 12:17:25;;;;;;;50.67;22.85;;;;;;;6.58;64.11;100884.19;4928312;28;20043;-59
2021/12/23 12:19:59;;;;;;;49.78;23.05;;;;;;;6.51;63.96;100885.72;4928767;28;20039;-59